首页
METAR-TAF:

METAR-TAF

机场 :

Ponta Delgada, 亚速尔群岛, 葡萄牙

纬度: 37-44N, 经度: 025-42W, 海拔: 71米

当前天气观测

该预报发布于44分钟前的19:30 UTC
风速11节,风向,有时为22节阵风,在西北北转东北之间变化
温度 13°C
湿度 72%
气压 1021 hPa
能见度10公里或以上
少量云层高于2000英尺
少量云层高于2500英尺, 塔状积云.

METAR: LPPD 201930Z 35011G22KT 320V020 9999 FEW020 FEW025TCU 13/08 Q1021

时间: 19:14 (20:14 UTC)

预报

该预报发布于3小时和14分钟前的17:00 UTC
预报有效从20日的 18点(UTC)到 21日的 18点(UTC)
风速10节,风向
能见度10公里或以上
散云层高于2000英尺
短暂存在
从 20日的 18点(UTC)到 21日的 18点(UTC)
少量云层高于1500英尺
多云层高于4000英尺
成为
从 20日的 18点(UTC)到 20日的 21点(UTC)
风速8节,风向西北
成为
从 21日的 03点(UTC)到 21日的 06点(UTC)
风速15节,风向北转西北
几率 40% :
短暂存在
从 21日的 06点(UTC)到 21日的 18点(UTC)
风速20节,风向北转西北,有时为30节阵风

TAF: LPPD 201700Z 2018/2118 35010KT 9999 SCT020 TEMPO 2018/2118 FEW015 BKN040 BECMG 2018/2021 31008KT BECMG 2103/2106 33015KT PROB40 TEMPO 2106/2118 33020G30KT

超过4000个机场的气象观测和天气预报(METAR&TAF报告)。

可查询的气象台以黄色和红色小点在地图上表示。

将鼠标移到小点上方,可查看气象台名称。

然后点击查看天气观测和预报。

如需切换地图:点击带黑十字的绿色按钮放大地图;点击带横线的绿色按钮缩小地图;或者点击绿色箭头查看邻近地区的地图。


METAR-TAF: